METAR Data
IDs: Format: Raw Decoded Include TAF

Data at: 1426 UTC 10 Jul 2020

METAR for:KAUN (Auburn Muni, CA, US)
Text:KAUN 101415Z AUTO 00000KT 10SM CLR 24/08 A3000 RMK A01
Temperature: 24.0°C ( 75°F)
Dewpoint: 8.0°C ( 46°F) [RH = 36%]
Pressure (altimeter):30.00 inches Hg (1016.0 mb)
Winds:calm
Visibility:10 or more sm (16+ km)
Ceiling:at least 12,000 feet AGL
Clouds:sky clear below 12,000 feet AGL
QC Flag:automated observation with no human augmentation